Tuesday, June 19, 2018, 6:46 AM EDT
Back to Local

KELM, Elmira County Airport

Location: Horseheads, NY, United States Lat: 42.167
Local Time: 6:46 AM EDT (10:46 GMT) Lon: -76.9
Time Zone: US/Eastern Elev: 954 ft

Show me the last for .
Show Decoded

2018-06-19 06:23 METAR KELM 191023Z 35008KT 320V020 10SM SCT013 BKN049 OVC065 19/17 A2992 RMK AO2
                 T01890167 $ =
2018-06-19 06:12 METAR KELM 191012Z 01009KT 10SM BKN013 OVC055 19/17 A2991 RMK AO2 T01890172 $ =
2018-06-19 05:53 METAR KELM 190953Z AUTO 01010KT 10SM FEW016 SCT021 OVC055 19/17 A2990 RMK AO2
                 RAE0856 SLP118 P0000 T01890172 $ =
2018-06-19 05:33 METAR KELM 190933Z AUTO 01011KT 10SM BKN016 OVC020 19/18 A2990 RMK AO2 RAE0856
                 P0000 T01890178 $ =
2018-06-19 05:23 METAR KELM 190923Z AUTO 02009G19KT 10SM BKN013 BKN018 OVC034 19/18 A2989 RMK AO2
                 RAE0856 P0000 T01940178 $ =
2018-06-19 05:00 METAR KELM 190900Z AUTO 02011KT 9SM FEW010 BKN016 OVC035 20/19 A2987 RMK AO2
                 RAE0856 P0000 T02000189 $ =
2018-06-19 04:53 METAR KELM 190853Z AUTO 01010KT 5SM -RA BR BKN014 BKN020 OVC027 20/19 A2987 RMK
                 AO2 RAB36 SLP107 P0001 60002 T02000189 53016 $ =
2018-06-19 03:53 METAR KELM 190753Z AUTO VRB04KT 10SM SCT018 BKN023 OVC037 23/21 A2984 RMK AO2
                 SLP095 T02280206 $ =
2018-06-19 03:32 METAR KELM 190732Z AUTO 35004KT 10SM FEW022 BKN030 OVC065 23/21 A2984 RMK AO2
                 T02280206 $ =
2018-06-19 02:53 METAR KELM 190653Z AUTO 36003KT 10SM FEW013 SCT019 OVC026 23/23 A2983 RMK AO2
                 RAB0556E15 SLP093 P0001 T02330233 $ =
2018-06-19 02:22 METAR KELM 190622Z AUTO 07004KT 10SM BKN015 BKN020 OVC041 23/23 A2983 RMK AO2
                 RAB0556E15 P0001 T02330228 $ =
2018-06-19 01:53 METAR KELM 190553Z AUTO 24006KT 10SM FEW023 BKN041 OVC075 23/23 A2982 RMK AO2
                 SLP089 60013 T02330228 10244 20233 58001 $ =
2018-06-19 01:48 METAR KELM 190548Z AUTO 24006KT 10SM FEW023 BKN038 BKN055 23/23 A2982 RMK AO2 $
                 =
2018-06-19 01:10 METAR KELM 190510Z AUTO 21008KT 10SM BKN024 BKN030 OVC036 23/23 A2983 RMK AO2
                 T02330228 $ =
2018-06-19 00:53 METAR KELM 190453Z AUTO 21005KT 10SM FEW022 SCT028 BKN036 24/23 A2983 RMK AO2
                 SLP092 T02390233 403560172 $ =
2018-06-19 00:01 METAR KELM 190401Z AUTO 22006KT 10SM FEW025 SCT035 24/24 A2982 RMK AO2 T02390239
                 $ =
2018-06-18 23:53 METAR KELM 190353Z 21005KT 10SM BKN025 BKN035 24/24 A2983 RMK AO2 SLP090
                 T02390239 $ =
2018-06-18 23:32 METAR KELM 190332Z 27003KT 9SM BKN026 24/24 A2983 RMK AO2 T02390239 $ =
2018-06-18 22:53 METAR KELM 190253Z 24007KT 8SM CLR 24/24 A2982 RMK AO2 LTG DSNT SE RAE20 SLP089
                 P0001 60013 T02390239 56000 =
2018-06-18 22:17 METAR KELM 190217Z 23006KT 8SM -RA FEW050 SCT100 24/24 A2982 RMK AO2 LTG DSNT SE
                 AND S P0001 T02390239 =
2018-06-18 22:02 METAR KELM 190202Z 23009KT 5SM VCTS -RA BR SCT031 SCT040 BKN050 24/24 A2982 RMK
                 AO2 LTG DSNT S AND SW P0001 T02390239 =
2018-06-18 21:53 METAR KELM 190153Z 22007KT 3SM RA BR SCT031 BKN042 OVC080 24/24 A2983 RMK AO2
                 LTG DSNT SW RAB10 SLP091 P0005 T02390239 =
2018-06-18 21:37 METAR KELM 190137Z 27003KT 5SM VCTS -RA BR FEW030 BKN040 BKN055 24/24 A2982 RMK
                 AO2 LTG DSNT SW AND W RAB10 P0001 T02390239 =
2018-06-18 20:53 METAR KELM 190053Z 29003KT 10SM FEW039 BKN055 BKN095 24/23 A2982 RMK AO2 RAE53
                 SLP088 P0007 T02440233 =
2018-06-18 20:33 METAR KELM 190033Z 19007KT 6SM -RA BR BKN040 OVC055 24/23 A2982 RMK AO2 LTG DSNT
                 SE P0007 T02440233 =
2018-06-18 19:53 METAR KELM 182353Z 32010KT 4SM VCTS -RA BR FEW055 SCT075 BKN095 26/23 A2982 RMK
                 AO2 LTG DSNT NE AND SW RAB18 SLP091 P0003 60003 T02560233 10356 20256 55007 =
2018-06-18 19:26 METAR KELM 182326Z 25006KT 10SM VCTS -RA CLR 30/22 A2981 RMK AO2 LTG DSNT W AND
                 NW RAB18 P0000 T03000222 =
2018-06-18 18:53 METAR KELM 182253Z 25005KT 10SM CLR 30/22 A2981 RMK AO2 LTG DSNT W SLP085
                 T03000222 =
2018-06-18 17:53 METAR KELM 182153Z 26008KT 10SM CLR 32/22 A2982 RMK AO2 SLP090 T03170217 =
2018-06-18 16:53 METAR KELM 182053Z 26011G20KT 10SM CLR 33/21 A2984 RMK AO2 LTG DSNT NE SLP097
                 T03280211 56017 =
2018-06-18 15:53 METAR KELM 181953Z 26016G23KT 10SM CLR 33/21 A2986 RMK AO2 PK WND 28028/1924 LTG
                 DSNT NW SLP104 T03280206 =
2018-06-18 14:53 METAR KELM 181853Z 25015G23KT 10SM FEW070 35/20 A2987 RMK AO2 SLP106 T03500200 =
2018-06-18 13:53 METAR KELM 181753Z 28011KT 10SM CLR 34/21 A2989 RMK AO2 SLP115 T03390211 10344
                 20228 58017 =
2018-06-18 12:53 METAR KELM 181653Z 25013G20KT 10SM SCT055 34/21 A2992 RMK AO2 SLP123 T03440211 =
2018-06-18 11:53 METAR KELM 181553Z 25012KT 10SM FEW080 33/22 A2994 RMK AO2 SLP129 T03330222 =
2018-06-18 10:53 METAR KELM 181453Z 25010KT 10SM CLR 32/23 A2995 RMK AO2 SLP131 T03170228 58015 =
2018-06-18 09:53 METAR KELM 181353Z 23009KT 10SM CLR 29/23 A2996 RMK AO2 SLP138 T02940228 =
2018-06-18 08:53 METAR KELM 181253Z 22005KT 10SM CLR 26/22 A2998 RMK AO2 SLP146 T02610217 =
2018-06-18 07:53 METAR KELM 181153Z 22004KT 9SM CLR 23/21 A2999 RMK AO2 SLP148 T02280206 10228
                 20172 57003 =
2018-06-18 06:53 METAR KELM 181053Z 24003KT 5SM BR CLR 21/20 A2999 RMK AO2 SLP149 T02060200 =

Support USWX by starting your Amazon purchase here.